Conway, Michigan
Current Conditions -  °F | °C
As of 9:15 AM on Sunday 21 Dec 2014 (Local Time) from KMGN Reporting Station
Overcast Overcast  
Wind Chill: 19°   Ceiling: 2500
Heat Index: 26°   Visibility: 10mi
Dew Point: 22°   Wind: 6mph
Humidity: 86%   Direction: 60°ENE
Pressure: 30.21"   Gusts: NA
Location:  45.42°N, 84.87°W
Report Text: KMGN 211415Z AUTO 06005KT 10SM OVC025 M03/M05 A3021 RMK AO2 T10351055
Loading
Personal Weather Stations






























Interactive Weather Map New forecast layout! Learn more

10-Day Weather Forecast

Advertisements
Track Severe Weather on mobile